createdAt,value
2023-03-31T00:01:10.239Z,6.40
2023-03-31T00:03:38.886Z,5.50
2023-03-31T00:06:07.383Z,7.43
2023-03-31T00:08:40.242Z,6.68
2023-03-31T00:11:08.663Z,8.07
2023-03-31T00:13:37.701Z,5.95
2023-03-31T00:16:09.905Z,5.93
2023-03-31T00:18:40.822Z,6.90
2023-03-31T00:21:14.451Z,6.35
2023-03-31T00:23:42.570Z,5.35
2023-03-31T00:26:10.358Z,7.38
2023-03-31T00:28:38.072Z,6.80
2023-03-31T00:31:07.169Z,6.55
2023-03-31T00:33:34.912Z,8.05
2023-03-31T00:36:06.322Z,6.15
2023-03-31T00:38:35.311Z,6.38
2023-03-31T00:41:03.933Z,5.63
2023-03-31T00:43:33.900Z,8.48
2023-03-31T00:46:07.361Z,6.53
2023-03-31T00:48:38.630Z,8.95
2023-03-31T00:51:08.442Z,7.28
2023-03-31T00:53:38.045Z,7.95
2023-03-31T00:56:10.281Z,7.95
2023-03-31T00:58:43.826Z,5.95
2023-03-31T01:01:17.804Z,7.22
2023-03-31T01:03:48.418Z,9.07
2023-03-31T01:06:19.888Z,7.80
2023-03-31T01:08:50.080Z,5.85
2023-03-31T01:11:21.056Z,5.53
2023-03-31T01:13:51.735Z,7.13
2023-03-31T01:16:20.088Z,5.03
2023-03-31T01:18:50.127Z,4.75
2023-03-31T01:22:02.596Z,5.18
2023-03-31T01:25:01.652Z,4.68
2023-03-31T01:27:55.146Z,5.15
2023-03-31T01:30:52.521Z,8.07
2023-03-31T01:33:52.163Z,5.07
2023-03-31T01:36:58.922Z,6.60
2023-03-31T01:39:57.463Z,7.75
2023-03-31T01:42:35.122Z,6.32
2023-03-31T01:45:16.717Z,7.53
2023-03-31T01:47:51.966Z,5.32
2023-03-31T01:50:25.763Z,6.68
2023-03-31T01:53:02.757Z,7.53
2023-03-31T01:55:36.779Z,7.57
2023-03-31T01:58:09.980Z,7.35
2023-03-31T02:00:42.143Z,5.90
2023-03-31T02:03:14.785Z,6.38
2023-03-31T02:05:48.487Z,8.60
2023-03-31T02:08:20.981Z,5.20
2023-03-31T02:10:51.507Z,6.60
2023-03-31T02:13:22.222Z,5.72
2023-03-31T02:15:54.462Z,6.45
2023-03-31T02:18:27.461Z,8.05
2023-03-31T02:20:57.564Z,6.70
2023-03-31T02:23:29.552Z,9.27
2023-03-31T02:26:04.053Z,5.35
2023-03-31T02:28:32.343Z,6.82
2023-03-31T02:31:22.359Z,6.85
2023-03-31T02:33:50.810Z,5.88
2023-03-31T02:36:19.648Z,6.63
2023-03-31T02:38:52.380Z,7.70
2023-03-31T02:41:21.722Z,5.63
2023-03-31T02:43:49.424Z,6.43
2023-03-31T02:46:17.165Z,4.70
2023-03-31T02:48:49.448Z,5.22
2023-03-31T02:51:41.501Z,6.43
2023-03-31T02:54:37.765Z,6.20
2023-03-31T02:57:28.323Z,6.32
2023-03-31T03:00:09.316Z,6.97
2023-03-31T03:02:52.020Z,5.00
2023-03-31T03:05:29.510Z,4.80
2023-03-31T03:08:06.434Z,5.00
2023-03-31T03:10:42.668Z,5.00
2023-03-31T03:13:20.062Z,6.05
2023-03-31T03:15:50.682Z,4.72
2023-03-31T03:18:18.627Z,4.72
2023-03-31T03:20:49.109Z,4.10
2023-03-31T03:23:17.939Z,4.22
2023-03-31T03:25:46.110Z,6.38
2023-03-31T03:28:15.358Z,5.95
2023-03-31T03:30:43.129Z,4.03
2023-03-31T03:33:11.130Z,5.60
2023-03-31T03:35:38.981Z,3.63
2023-03-31T03:38:06.746Z,4.97
2023-03-31T03:40:34.555Z,4.60
2023-03-31T03:43:02.344Z,4.60
2023-03-31T03:45:31.546Z,4.78
2023-03-31T03:47:59.319Z,3.67
2023-03-31T03:50:27.183Z,4.15
2023-03-31T03:52:54.976Z,4.88
2023-03-31T03:55:23.107Z,5.35
2023-03-31T03:57:50.832Z,5.57
2023-03-31T04:00:19.116Z,4.80
2023-03-31T04:02:48.245Z,3.72
2023-03-31T04:05:16.156Z,5.47
2023-03-31T04:07:44.106Z,4.10
2023-03-31T04:10:11.943Z,4.43
2023-03-31T04:12:39.659Z,4.63
2023-03-31T04:15:08.556Z,3.67
2023-03-31T04:17:37.489Z,4.60
2023-03-31T04:20:09.919Z,3.85
2023-03-31T04:22:41.581Z,3.73
2023-03-31T04:25:14.785Z,4.72
2023-03-31T04:27:46.734Z,3.00
2023-03-31T04:30:22.543Z,4.60
2023-03-31T04:32:51.499Z,5.15
2023-03-31T04:35:21.659Z,4.00
2023-03-31T04:37:49.667Z,4.18
2023-03-31T04:40:17.587Z,4.13
2023-03-31T04:42:45.948Z,4.90
2023-03-31T04:45:14.214Z,3.00
2023-03-31T04:47:42.460Z,4.63
2023-03-31T04:50:14.495Z,4.43
2023-03-31T04:52:45.568Z,3.97
2023-03-31T04:55:13.258Z,5.50
2023-03-31T04:57:42.044Z,5.47
2023-03-31T05:00:11.452Z,4.50
2023-03-31T05:02:39.272Z,4.75
2023-03-31T05:05:07.366Z,5.50
2023-03-31T05:07:35.099Z,4.40
2023-03-31T05:10:04.580Z,4.13
2023-03-31T05:12:36.054Z,4.20
2023-03-31T05:15:03.961Z,3.65
2023-03-31T05:17:33.041Z,4.80
2023-03-31T05:20:01.093Z,4.47
2023-03-31T05:22:29.099Z,4.45
2023-03-31T05:24:56.831Z,2.72
2023-03-31T05:27:26.085Z,4.53
2023-03-31T05:29:53.760Z,3.88
2023-03-31T05:32:21.517Z,4.80
2023-03-31T05:34:52.033Z,4.10
2023-03-31T05:37:20.918Z,4.43
2023-03-31T05:39:48.651Z,3.50
2023-03-31T05:42:16.415Z,4.85
2023-03-31T05:44:45.500Z,3.05
2023-03-31T05:47:13.565Z,3.50
2023-03-31T05:49:41.334Z,4.03
2023-03-31T05:52:09.926Z,5.50
2023-03-31T05:54:37.697Z,4.07
2023-03-31T05:57:05.735Z,3.22
2023-03-31T05:59:35.603Z,3.15
2023-03-31T06:02:05.266Z,3.90
2023-03-31T06:04:33.466Z,3.30
2023-03-31T06:07:01.470Z,3.67
2023-03-31T06:09:29.451Z,4.28
2023-03-31T06:11:57.195Z,4.00
2023-03-31T06:14:24.977Z,3.22
2023-03-31T06:16:52.711Z,3.55
2023-03-31T06:19:21.956Z,4.88
2023-03-31T06:21:49.784Z,4.38
2023-03-31T06:24:17.510Z,4.57
2023-03-31T06:26:45.336Z,3.72
2023-03-31T06:29:13.017Z,4.85
2023-03-31T06:31:40.844Z,3.55
2023-03-31T06:34:08.648Z,3.60
2023-03-31T06:36:37.771Z,4.07
2023-03-31T06:39:05.495Z,3.78
2023-03-31T06:41:33.321Z,2.75
2023-03-31T06:44:01.048Z,3.60
2023-03-31T06:46:28.882Z,4.07
2023-03-31T06:48:56.624Z,4.43
2023-03-31T06:51:24.421Z,3.55
2023-03-31T06:53:53.568Z,3.28
2023-03-31T06:56:21.954Z,3.53
2023-03-31T06:58:49.726Z,4.88
2023-03-31T07:01:17.636Z,4.53
2023-03-31T07:03:45.501Z,2.33
2023-03-31T07:06:13.357Z,3.30
2023-03-31T07:08:41.145Z,3.35
2023-03-31T07:11:10.630Z,4.78
2023-03-31T07:13:38.649Z,4.20
2023-03-31T07:16:08.010Z,3.30
2023-03-31T07:18:36.641Z,3.55
2023-03-31T07:21:09.430Z,4.20
2023-03-31T07:23:37.935Z,4.65
2023-03-31T07:26:06.253Z,4.32
2023-03-31T07:28:36.042Z,4.97
2023-03-31T07:31:04.060Z,2.80
2023-03-31T07:33:32.061Z,3.25
2023-03-31T07:36:10.776Z,4.43
2023-03-31T07:38:40.631Z,3.25
2023-03-31T07:41:12.865Z,5.13
2023-03-31T07:43:42.388Z,4.20
2023-03-31T07:46:15.922Z,3.75
2023-03-31T07:48:44.015Z,3.25
2023-03-31T07:51:11.724Z,3.00
2023-03-31T07:53:39.471Z,3.40
2023-03-31T07:56:07.661Z,2.70
2023-03-31T07:58:35.807Z,4.75
2023-03-31T08:01:05.753Z,3.53
2023-03-31T08:03:34.582Z,3.22
2023-03-31T08:06:02.638Z,3.22
2023-03-31T08:08:30.389Z,3.92
2023-03-31T08:10:58.102Z,3.25
2023-03-31T08:13:25.999Z,5.95
2023-03-31T08:15:53.754Z,4.72
2023-03-31T08:18:22.869Z,3.17
2023-03-31T08:20:50.952Z,4.10
2023-03-31T08:23:18.778Z,3.00
2023-03-31T08:25:47.308Z,3.20
2023-03-31T08:28:15.089Z,2.70
2023-03-31T08:30:43.538Z,3.08
2023-03-31T08:33:12.363Z,2.38
2023-03-31T08:35:41.734Z,3.05
2023-03-31T08:38:09.465Z,3.80
2023-03-31T08:40:44.963Z,2.60
2023-03-31T08:43:21.703Z,4.53
2023-03-31T08:45:50.936Z,3.83
2023-03-31T08:48:26.093Z,2.67
2023-03-31T08:51:00.622Z,2.78
2023-03-31T08:53:31.392Z,3.67
2023-03-31T08:56:01.149Z,4.03
2023-03-31T08:58:37.336Z,4.65
2023-03-31T09:01:17.359Z,2.53
2023-03-31T09:03:53.699Z,2.53
2023-03-31T09:06:27.876Z,3.33
2023-03-31T09:09:00.557Z,2.30
2023-03-31T09:11:36.289Z,2.50
2023-03-31T09:14:13.706Z,2.83
2023-03-31T09:16:48.961Z,1.90
2023-03-31T09:19:25.015Z,5.10
2023-03-31T09:21:56.488Z,4.00
2023-03-31T09:24:29.727Z,3.25
2023-03-31T09:27:02.956Z,3.00
2023-03-31T09:29:43.282Z,3.92
2023-03-31T09:32:16.659Z,3.70
2023-03-31T09:37:13.993Z,3.35
2023-03-31T09:39:42.141Z,3.90
2023-03-31T09:42:13.439Z,3.20
2023-03-31T09:44:44.631Z,3.85
2023-03-31T09:47:19.966Z,3.13
2023-03-31T09:49:54.140Z,3.60
2023-03-31T09:52:29.893Z,2.00
2023-03-31T09:55:00.492Z,2.30
2023-03-31T09:57:32.745Z,3.95
2023-03-31T10:00:14.684Z,2.95
2023-03-31T10:02:45.676Z,2.90
2023-03-31T10:05:26.963Z,3.78
2023-03-31T10:08:15.428Z,4.28
2023-03-31T10:10:47.111Z,1.92
2023-03-31T10:13:18.435Z,3.20
2023-03-31T10:15:46.328Z,2.63
2023-03-31T10:18:16.011Z,2.50
2023-03-31T10:20:49.735Z,2.88
2023-03-31T10:23:26.033Z,1.67
2023-03-31T10:25:54.575Z,2.45
2023-03-31T10:28:23.602Z,3.15
2023-03-31T10:30:53.558Z,2.95
2023-03-31T10:33:25.916Z,2.22
2023-03-31T10:35:57.501Z,2.97
2023-03-31T10:38:29.225Z,2.33
2023-03-31T10:40:58.582Z,2.75
2023-03-31T10:43:28.842Z,2.13
2023-03-31T10:45:59.988Z,2.35
2023-03-31T10:48:29.598Z,2.63
2023-03-31T10:51:01.599Z,4.05
2023-03-31T10:53:30.781Z,3.40
2023-03-31T10:56:07.880Z,2.97
2023-03-31T10:58:58.390Z,2.47
2023-03-31T11:01:45.831Z,2.72
2023-03-31T11:04:34.923Z,3.10
2023-03-31T11:07:14.700Z,3.25
2023-03-31T11:09:54.170Z,2.67
2023-03-31T11:12:28.913Z,3.90
2023-03-31T11:15:09.708Z,3.00
2023-03-31T11:17:52.848Z,2.88
2023-03-31T11:20:30.817Z,3.28
2023-03-31T11:23:06.186Z,2.13
2023-03-31T11:25:39.327Z,3.63
2023-03-31T11:28:27.705Z,3.30
2023-03-31T11:31:04.735Z,2.78
2023-03-31T11:33:46.005Z,2.90
2023-03-31T11:36:36.732Z,2.78
2023-03-31T11:39:20.497Z,3.55
2023-03-31T11:41:52.161Z,1.83
2023-03-31T11:44:21.548Z,1.25
2023-03-31T11:46:54.037Z,1.95
2023-03-31T11:49:25.739Z,2.90
2023-03-31T11:51:56.836Z,3.33
2023-03-31T11:54:29.882Z,2.15
2023-03-31T11:57:03.239Z,2.22
2023-03-31T12:02:10.467Z,3.45
2023-03-31T12:04:42.192Z,2.60
2023-03-31T12:07:23.837Z,1.83
2023-03-31T12:09:56.382Z,2.45
2023-03-31T12:12:30.512Z,2.03
2023-03-31T12:15:05.519Z,2.50
2023-03-31T12:17:36.229Z,3.25
2023-03-31T12:20:13.445Z,3.63
2023-03-31T12:22:45.349Z,3.28
2023-03-31T12:25:14.901Z,1.98
2023-03-31T12:27:49.501Z,5.75
2023-03-31T12:30:34.527Z,2.85
2023-03-31T12:33:06.033Z,2.45
2023-03-31T12:35:46.542Z,3.17
2023-03-31T12:38:34.267Z,2.45
2023-03-31T12:41:11.713Z,1.98
2023-03-31T12:44:13.591Z,1.63
2023-03-31T12:46:57.607Z,1.85
2023-03-31T12:49:41.620Z,1.83
2023-03-31T12:52:18.264Z,2.97
2023-03-31T12:55:21.522Z,2.28
2023-03-31T12:57:49.351Z,2.67
2023-03-31T13:00:22.916Z,3.25
2023-03-31T13:02:51.716Z,2.40
2023-03-31T13:05:49.950Z,2.75
2023-03-31T13:08:53.024Z,1.98
2023-03-31T13:11:23.066Z,2.00
2023-03-31T13:14:01.017Z,2.85
2023-03-31T13:16:31.305Z,1.75
2023-03-31T13:18:59.646Z,3.05
2023-03-31T13:21:27.684Z,3.72
2023-03-31T13:24:01.011Z,2.67
2023-03-31T13:26:41.124Z,1.50
2023-03-31T13:29:21.416Z,1.75
2023-03-31T13:32:20.294Z,1.50
2023-03-31T13:34:53.254Z,2.40
2023-03-31T13:37:38.413Z,1.88
2023-03-31T13:40:47.497Z,2.92
2023-03-31T13:43:32.598Z,2.50
2023-03-31T13:46:27.445Z,1.83
2023-03-31T13:49:11.104Z,1.67
2023-03-31T13:54:50.457Z,2.92
2023-03-31T13:58:24.927Z,1.88
2023-03-31T14:01:17.743Z,2.10
2023-03-31T14:03:59.861Z,3.10
2023-03-31T14:06:35.490Z,2.83
2023-03-31T14:09:06.781Z,1.70
2023-03-31T14:11:34.800Z,1.58
2023-03-31T14:14:05.044Z,1.63
2023-03-31T14:16:37.313Z,1.77
2023-03-31T14:19:33.299Z,2.95
2023-03-31T14:22:12.290Z,2.28
2023-03-31T14:24:48.607Z,2.22
2023-03-31T14:27:32.384Z,1.52
2023-03-31T14:30:12.986Z,1.90
2023-03-31T14:32:49.849Z,1.40
2023-03-31T14:35:32.445Z,2.03
2023-03-31T14:38:04.920Z,2.22
2023-03-31T14:40:32.724Z,1.53
2023-03-31T14:43:00.487Z,1.50
2023-03-31T14:45:31.908Z,2.50
2023-03-31T14:48:04.142Z,1.85
2023-03-31T14:50:35.654Z,1.85
2023-03-31T14:53:05.049Z,1.88
2023-03-31T14:58:06.503Z,1.30
2023-03-31T15:00:36.014Z,1.70
2023-03-31T15:03:08.806Z,1.58
2023-03-31T15:05:39.108Z,1.13
2023-03-31T15:08:12.769Z,1.98
2023-03-31T15:10:45.614Z,2.00
2023-03-31T15:13:18.004Z,1.65
2023-03-31T15:15:46.404Z,1.37
2023-03-31T15:18:15.738Z,3.10
2023-03-31T15:20:44.730Z,1.75
2023-03-31T15:23:25.953Z,1.63
2023-03-31T15:25:58.566Z,1.90
2023-03-31T15:28:29.879Z,1.92
2023-03-31T15:31:09.599Z,1.15
2023-03-31T15:33:41.767Z,1.27
2023-03-31T15:36:12.887Z,2.17
2023-03-31T15:38:42.367Z,1.48
2023-03-31T15:41:13.616Z,1.60
2023-03-31T15:43:50.544Z,1.70
2023-03-31T15:46:21.124Z,1.70
2023-03-31T15:48:54.185Z,2.88
2023-03-31T15:51:26.687Z,1.38
2023-03-31T15:53:55.832Z,1.92
2023-03-31T15:56:33.586Z,2.60
2023-03-31T15:59:05.241Z,1.65
2023-03-31T16:01:35.999Z,0.90
2023-03-31T16:04:08.474Z,1.48
2023-03-31T16:06:43.329Z,0.90
2023-03-31T16:09:17.579Z,1.50
2023-03-31T16:11:48.390Z,2.03
2023-03-31T16:14:21.409Z,1.83
2023-03-31T16:16:52.801Z,2.65
2023-03-31T16:19:24.302Z,1.58
2023-03-31T16:21:55.823Z,2.17
2023-03-31T16:24:32.626Z,1.83
2023-03-31T16:27:06.100Z,2.47
2023-03-31T16:29:35.120Z,2.15
2023-03-31T16:32:11.789Z,1.90
2023-03-31T16:34:54.331Z,2.63
2023-03-31T16:37:22.206Z,1.70
2023-03-31T16:39:51.703Z,1.73
2023-03-31T16:42:20.202Z,1.75
2023-03-31T16:44:59.810Z,2.08
2023-03-31T16:47:36.547Z,2.42
2023-03-31T16:50:07.291Z,2.58
2023-03-31T16:52:35.868Z,2.33
2023-03-31T16:55:05.447Z,1.95
2023-03-31T16:57:33.392Z,1.50
2023-03-31T17:00:01.762Z,2.03
2023-03-31T17:02:29.611Z,2.08
2023-03-31T17:05:06.203Z,1.83
2023-03-31T17:07:40.766Z,1.92
2023-03-31T17:10:11.183Z,2.83
2023-03-31T17:12:39.026Z,1.98
2023-03-31T17:15:07.884Z,1.67
2023-03-31T17:17:36.063Z,3.20
2023-03-31T17:20:04.569Z,3.13
2023-03-31T17:22:32.630Z,2.03
2023-03-31T17:25:00.436Z,3.92
2023-03-31T17:27:30.909Z,2.20
2023-03-31T17:29:59.160Z,2.97
2023-03-31T17:32:27.640Z,3.03
2023-03-31T17:34:55.428Z,4.20
2023-03-31T17:37:23.254Z,2.40
2023-03-31T17:39:51.068Z,2.30
2023-03-31T17:42:20.405Z,2.50
2023-03-31T17:44:51.672Z,2.50
2023-03-31T17:47:20.441Z,2.83
2023-03-31T17:49:48.162Z,2.40
2023-03-31T17:52:16.039Z,2.45
2023-03-31T17:54:43.784Z,3.22
2023-03-31T17:57:11.571Z,2.47
2023-03-31T17:59:39.309Z,2.30
2023-03-31T18:02:08.580Z,2.83
2023-03-31T18:04:36.417Z,2.63
2023-03-31T18:07:04.153Z,2.60
2023-03-31T18:09:32.009Z,2.17
2023-03-31T18:11:59.696Z,2.65
2023-03-31T18:14:27.649Z,3.20
2023-03-31T18:16:56.219Z,2.67
2023-03-31T18:19:25.352Z,2.22
2023-03-31T18:21:53.051Z,2.53
2023-03-31T18:24:20.744Z,1.92
2023-03-31T18:26:48.454Z,2.65
2023-03-31T18:29:16.352Z,2.35
2023-03-31T18:31:44.138Z,3.35
2023-03-31T18:34:13.508Z,2.45
2023-03-31T18:36:43.458Z,1.95
2023-03-31T18:39:11.698Z,3.05
2023-03-31T18:41:43.851Z,2.83
2023-03-31T18:44:13.693Z,2.13
2023-03-31T18:46:42.386Z,3.00
2023-03-31T18:49:10.199Z,3.05
2023-03-31T18:51:37.923Z,2.78
2023-03-31T18:54:07.323Z,2.38
2023-03-31T18:56:35.410Z,3.13
2023-03-31T18:59:04.776Z,3.65
2023-03-31T19:01:35.104Z,3.97
2023-03-31T19:04:02.865Z,4.43
2023-03-31T19:06:30.667Z,4.28
2023-03-31T19:08:58.546Z,3.20
2023-03-31T19:11:27.800Z,2.72
2023-03-31T19:13:56.462Z,3.22
2023-03-31T19:16:26.733Z,1.38
2023-03-31T19:18:55.148Z,2.30
2023-03-31T19:21:23.007Z,3.90
2023-03-31T19:23:50.842Z,3.20
2023-03-31T19:26:19.681Z,3.00
2023-03-31T19:28:49.139Z,2.50
2023-03-31T19:31:16.944Z,2.30
2023-03-31T19:33:44.710Z,2.42
2023-03-31T19:36:13.146Z,2.88
2023-03-31T19:38:41.188Z,2.10
2023-03-31T19:41:10.836Z,2.38
2023-03-31T19:43:38.624Z,2.65
2023-03-31T19:46:07.911Z,2.97
2023-03-31T19:48:35.851Z,2.58
2023-03-31T19:51:05.897Z,2.67
2023-03-31T19:53:34.082Z,2.30
2023-03-31T19:56:03.879Z,3.95
2023-03-31T19:58:35.184Z,2.03
2023-03-31T20:01:06.425Z,2.20
2023-03-31T20:03:36.137Z,2.03
2023-03-31T20:06:07.064Z,3.38
2023-03-31T20:08:35.101Z,2.60
2023-03-31T20:11:03.918Z,3.28
2023-03-31T20:13:32.550Z,2.22
2023-03-31T20:16:01.887Z,3.10
2023-03-31T20:18:30.312Z,1.63
2023-03-31T20:21:08.028Z,4.22
2023-03-31T20:23:36.481Z,2.40
2023-03-31T20:26:04.746Z,3.05
2023-03-31T20:28:34.613Z,2.17
2023-03-31T20:31:07.309Z,3.78
2023-03-31T20:33:35.178Z,3.25
2023-03-31T20:36:04.106Z,2.75
2023-03-31T20:38:34.157Z,4.03
2023-03-31T20:41:01.930Z,2.58
2023-03-31T20:43:29.712Z,1.98
2023-03-31T20:46:03.002Z,2.75
2023-03-31T20:48:31.336Z,2.75
2023-03-31T20:50:59.436Z,2.22
2023-03-31T20:53:27.177Z,2.60
2023-03-31T20:55:56.505Z,3.30
2023-03-31T20:58:24.362Z,2.13
2023-03-31T21:00:59.322Z,3.38
2023-03-31T21:03:27.206Z,2.53
2023-03-31T21:05:55.016Z,2.92
2023-03-31T21:08:22.734Z,3.65
2023-03-31T21:10:50.597Z,2.97
2023-03-31T21:13:19.720Z,2.95
2023-03-31T21:15:54.352Z,2.88
2023-03-31T21:18:22.308Z,2.22
2023-03-31T21:20:51.786Z,2.70
2023-03-31T21:23:20.087Z,2.30
2023-03-31T21:25:49.368Z,1.77
2023-03-31T21:28:17.090Z,2.63
2023-03-31T21:30:54.331Z,3.13
2023-03-31T21:33:22.948Z,3.40
2023-03-31T21:35:51.183Z,2.75
2023-03-31T21:38:19.828Z,2.75
2023-03-31T21:40:48.048Z,2.15
2023-03-31T21:43:16.439Z,2.38
2023-03-31T21:45:44.246Z,2.25
2023-03-31T21:48:13.466Z,3.03
2023-03-31T21:50:42.719Z,1.70
2023-03-31T21:53:12.292Z,1.77
2023-03-31T21:55:40.775Z,1.85
2023-03-31T21:58:08.509Z,2.80
2023-03-31T22:00:37.247Z,2.20
2023-03-31T22:03:22.400Z,1.83
2023-03-31T22:05:54.275Z,3.42
2023-03-31T22:08:22.014Z,2.72
2023-03-31T22:10:50.744Z,2.28
2023-03-31T22:13:18.964Z,2.45
2023-03-31T22:15:46.841Z,1.50
2023-03-31T22:18:14.785Z,2.47
2023-03-31T22:20:42.474Z,2.38
2023-03-31T22:23:11.554Z,1.35
2023-03-31T22:25:39.646Z,2.50
2023-03-31T22:28:07.882Z,0.80
2023-03-31T22:30:35.700Z,1.42
2023-03-31T22:33:03.497Z,2.17
2023-03-31T22:35:31.733Z,1.50
2023-03-31T22:37:59.762Z,1.75
2023-03-31T22:40:30.065Z,1.55
2023-03-31T22:42:58.568Z,1.67
2023-03-31T22:45:26.392Z,1.48
2023-03-31T22:47:54.267Z,1.65
2023-03-31T22:50:22.242Z,1.92
2023-03-31T22:52:50.000Z,1.63
2023-03-31T22:55:17.899Z,2.30
2023-03-31T22:57:47.548Z,1.20
2023-03-31T23:00:16.143Z,2.80
2023-03-31T23:02:43.947Z,1.85
2023-03-31T23:05:12.199Z,1.02
2023-03-31T23:07:39.941Z,1.70
2023-03-31T23:10:08.911Z,1.85
2023-03-31T23:12:36.738Z,2.45
2023-03-31T23:15:06.349Z,2.70
2023-03-31T23:17:34.262Z,1.85
2023-03-31T23:20:02.064Z,2.50
2023-03-31T23:22:29.842Z,2.22
2023-03-31T23:24:57.541Z,1.42
2023-03-31T23:27:25.531Z,2.47
2023-03-31T23:29:53.312Z,2.47
2023-03-31T23:32:22.553Z,1.50
2023-03-31T23:34:50.385Z,1.60
2023-03-31T23:37:18.921Z,2.20
2023-03-31T23:39:46.595Z,1.60
2023-03-31T23:42:17.420Z,2.25
2023-03-31T23:44:45.178Z,1.42
2023-03-31T23:47:13.157Z,2.03
2023-03-31T23:49:42.303Z,1.60
2023-03-31T23:52:10.020Z,1.58
2023-03-31T23:54:37.727Z,1.88
2023-03-31T23:57:05.537Z,2.30
2023-03-31T23:59:33.284Z,2.03
